Pagina principale
METAR-TAF:

METAR-TAF

Aeroporti :

Koror, Babeldaob, Palau

Aeroporto Internazionale di Palau

latitudine: 07-22N, longitudine: 134-32E, altezza: 54 m

Osservazione

Il bollettino è stato emesso 41 minuti fa, alle 04:53 UTC
Vento 10 kt da est
Temperature 30°C
Umidità 70%
Pressione 1005 hPa
Visibilità: 24.1 km
Poco nuvoloso ad un'altezza di 1000 ft
Nubi sparse ad un'altezza di 1600 ft
Nuvoloso ad un'altezza di 12000 ft
Nuvoloso ad un'altezza di 30000 ft

METAR: PTRO 240453Z 10010KT 15SM FEW010 SCT016 BKN120 BKN300 30/24 A2967

Ora: 14:34 (05:34 UTC)

Previsione

Il bollettino è stato emesso 5 ore e 48 minuti fa, alle 23:46 UTC
Previsione valida dal 24 alle 00 UTC al 24 alle 24 UTC
Vento 6 kt da direzioni variabili
Visibilità: 10 km
Poco nuvoloso ad un'altezza di 2000 ft
Nubi sparse ad un'altezza di 12000 ft

TAF: PTRO 232346Z 2400/2424 VRB06KT P6SM FEW020 SCT120

Osservazioni e previsioni meteorologiche di più di 4000 aeroporti (messaggi METAR e TAF).

Le stazioni disponibili sono rappresentate dai dischi gialli e rossi sulla carta.

Puntare il mouse per vedere il nome della stazione.

Clicca sopra per visualizzare le osservazioni e previsioni meteorologiche.

Per cambiare la mappa : fare clic sui pulsanti verdi con una croce nera per ingrandire, il pulsante verde con un trattino per diminuire, o sulla freccia verde per le mappe adiacenti.


METAR-TAF: